createdAt,value
2022-10-16T00:00:07.442Z,99401.03
2022-10-16T00:02:35.521Z,99396.00
2022-10-16T00:05:03.504Z,99394.50
2022-10-16T00:07:31.494Z,99391.81
2022-10-16T00:09:59.095Z,99389.31
2022-10-16T00:12:26.906Z,99392.13
2022-10-16T00:14:54.885Z,99395.97
2022-10-16T00:17:22.651Z,99396.13
2022-10-16T00:19:50.660Z,99400.66
2022-10-16T00:22:18.266Z,99407.34
2022-10-16T00:24:46.260Z,99407.66
2022-10-16T00:27:13.865Z,99414.03
2022-10-16T00:29:41.691Z,99412.34
2022-10-16T00:32:09.613Z,99406.13
2022-10-16T00:34:37.164Z,99408.16
2022-10-16T00:37:04.791Z,99403.94
2022-10-16T00:39:32.406Z,99414.81
2022-10-16T00:42:00.154Z,99414.13
2022-10-16T00:44:28.154Z,99409.63
2022-10-16T00:46:55.755Z,99404.28
2022-10-16T00:49:23.342Z,99405.97
2022-10-16T00:51:51.041Z,99409.63
2022-10-16T00:54:18.809Z,99409.63
2022-10-16T00:56:46.784Z,99414.81
2022-10-16T00:59:14.428Z,99408.97
2022-10-16T01:01:42.007Z,99413.84
2022-10-16T01:04:09.534Z,99408.34
2022-10-16T01:06:38.762Z,99413.69
2022-10-16T01:09:06.757Z,99413.19
2022-10-16T01:11:34.349Z,99418.00
2022-10-16T01:14:01.977Z,99418.34
2022-10-16T01:16:29.589Z,99422.19
2022-10-16T01:18:57.203Z,99410.78
2022-10-16T01:21:25.178Z,99417.31
2022-10-16T01:23:52.801Z,99413.94
2022-10-16T01:26:20.382Z,99409.91
2022-10-16T01:28:48.435Z,99424.16
2022-10-16T01:31:16.227Z,99421.28
2022-10-16T01:33:44.245Z,99434.53
2022-10-16T01:36:11.956Z,99431.53
2022-10-16T01:38:39.518Z,99441.78
2022-10-16T01:41:07.097Z,99438.63
2022-10-16T01:43:34.871Z,99442.66
2022-10-16T01:46:02.844Z,99430.94
2022-10-16T01:48:30.405Z,99438.81
2022-10-16T01:50:58.356Z,99427.09
2022-10-16T01:53:26.973Z,99432.47
2022-10-16T01:55:54.623Z,99427.09
2022-10-16T01:58:22.609Z,99428.97
2022-10-16T02:00:50.262Z,99435.13
2022-10-16T02:03:17.890Z,99429.78
2022-10-16T02:05:45.496Z,99425.41
2022-10-16T02:08:13.304Z,99421.88
2022-10-16T02:10:41.236Z,99422.91
2022-10-16T02:13:09.176Z,99431.78
2022-10-16T02:15:36.743Z,99431.13
2022-10-16T02:18:04.293Z,99434.47
2022-10-16T02:20:32.001Z,99432.47
2022-10-16T02:22:59.937Z,99432.47
2022-10-16T02:25:27.501Z,99432.59
2022-10-16T02:27:55.101Z,99429.09
2022-10-16T02:30:22.646Z,99433.47
2022-10-16T02:32:50.272Z,99437.16
2022-10-16T02:35:18.661Z,99430.94
2022-10-16T02:37:46.199Z,99436.47
2022-10-16T02:40:13.783Z,99426.91
2022-10-16T02:42:41.516Z,99428.72
2022-10-16T02:45:09.292Z,99422.56
2022-10-16T02:47:37.064Z,99432.25
2022-10-16T02:50:04.677Z,99439.31
2022-10-16T02:52:32.529Z,99435.63
2022-10-16T02:55:00.069Z,99432.94
2022-10-16T02:57:29.407Z,99437.28
2022-10-16T02:59:57.389Z,99435.47
2022-10-16T03:02:24.936Z,99430.94
2022-10-16T03:04:52.548Z,99431.78
2022-10-16T03:07:20.396Z,99434.13
2022-10-16T03:09:48.175Z,99426.81
2022-10-16T03:12:16.097Z,99430.31
2022-10-16T03:14:43.659Z,99430.16
2022-10-16T03:17:11.221Z,99426.47
2022-10-16T03:19:38.844Z,99425.47
2022-10-16T03:22:06.417Z,99430.81
2022-10-16T03:24:34.425Z,99437.84
2022-10-16T03:27:02.001Z,99436.84
2022-10-16T03:29:30.507Z,99440.25
2022-10-16T03:31:58.044Z,99441.06
2022-10-16T03:34:25.824Z,99426.84
2022-10-16T03:36:53.859Z,99416.13
2022-10-16T03:39:21.411Z,99426.84
2022-10-16T03:41:48.990Z,99425.13
2022-10-16T03:44:16.541Z,99419.94
2022-10-16T03:46:44.350Z,99422.44
2022-10-16T03:49:12.288Z,99419.75
2022-10-16T03:51:39.894Z,99410.91
2022-10-16T03:54:07.454Z,99427.13
2022-10-16T03:56:35.278Z,99441.53
2022-10-16T03:59:03.194Z,99444.91
2022-10-16T04:01:31.562Z,99452.13
2022-10-16T04:03:59.174Z,99438.53
2022-10-16T04:06:26.753Z,99438.53
2022-10-16T04:08:54.318Z,99455.31
2022-10-16T04:11:22.145Z,99445.41
2022-10-16T04:13:49.765Z,99438.38
2022-10-16T04:16:17.302Z,99448.28
2022-10-16T04:18:44.913Z,99450.78
2022-10-16T04:21:12.498Z,99447.41
2022-10-16T04:23:42.037Z,99459.16
2022-10-16T04:26:10.006Z,99456.63
2022-10-16T04:28:37.651Z,99458.47
2022-10-16T04:31:05.222Z,99460.31
2022-10-16T04:33:32.813Z,99472.69
2022-10-16T04:36:00.585Z,99460.31
2022-10-16T04:38:28.505Z,99459.63
2022-10-16T04:40:56.152Z,99480.22
2022-10-16T04:43:23.765Z,99483.06
2022-10-16T04:45:52.181Z,99480.53
2022-10-16T04:48:19.843Z,99475.47
2022-10-16T04:50:51.671Z,99482.38
2022-10-16T04:53:22.695Z,99492.09
2022-10-16T04:55:50.314Z,99490.41
2022-10-16T04:58:17.872Z,99493.28
2022-10-16T05:00:45.645Z,99488.72
2022-10-16T05:03:13.707Z,99488.72
2022-10-16T05:05:41.836Z,99489.41
2022-10-16T05:08:09.422Z,99479.69
2022-10-16T05:10:36.953Z,99485.75
2022-10-16T05:13:04.513Z,99484.75
2022-10-16T05:15:32.521Z,99487.44
2022-10-16T05:18:00.095Z,99498.97
2022-10-16T05:20:27.638Z,99503.34
2022-10-16T05:22:55.254Z,99508.03
2022-10-16T05:25:23.031Z,99511.69
2022-10-16T05:27:51.369Z,99518.88
2022-10-16T05:30:18.972Z,99511.03
2022-10-16T05:32:46.550Z,99520.06
2022-10-16T05:35:14.146Z,99531.94
2022-10-16T05:37:41.936Z,99538.97
2022-10-16T05:40:09.880Z,99542.66
2022-10-16T05:42:38.261Z,99540.97
2022-10-16T05:45:05.855Z,99545.47
2022-10-16T05:47:33.448Z,99546.63
2022-10-16T05:50:01.093Z,99544.81
2022-10-16T05:52:28.768Z,99553.66
2022-10-16T05:54:56.303Z,99552.53
2022-10-16T05:57:24.079Z,99553.19
2022-10-16T05:59:51.898Z,99551.38
2022-10-16T06:02:19.471Z,99542.66
2022-10-16T06:04:47.415Z,99559.75
2022-10-16T06:07:15.019Z,99570.47
2022-10-16T06:09:42.607Z,99576.78
2022-10-16T06:12:10.650Z,99571.44
2022-10-16T06:14:38.358Z,99575.81
2022-10-16T06:17:06.328Z,99584.53
2022-10-16T06:19:33.916Z,99587.91
2022-10-16T06:22:03.749Z,99578.84
2022-10-16T06:24:31.384Z,99579.84
2022-10-16T06:26:58.992Z,99585.22
2022-10-16T06:29:26.969Z,99599.28
2022-10-16T06:31:54.757Z,99598.13
2022-10-16T06:34:22.849Z,99597.66
2022-10-16T06:36:50.472Z,99608.78
2022-10-16T06:39:18.332Z,99612.81
2022-10-16T06:41:45.928Z,99611.50
2022-10-16T06:44:13.522Z,99605.81
2022-10-16T06:46:41.148Z,99613.56
2022-10-16T06:49:08.734Z,99607.88
2022-10-16T06:51:40.600Z,99619.81
2022-10-16T06:54:10.828Z,99622.72
2022-10-16T06:56:38.963Z,99635.31
2022-10-16T06:59:06.589Z,99623.81
2022-10-16T07:01:34.175Z,99621.47
2022-10-16T07:04:01.854Z,99627.63
2022-10-16T07:06:29.842Z,99630.66
2022-10-16T07:08:57.513Z,99635.38
2022-10-16T07:11:25.281Z,99643.81
2022-10-16T07:13:56.184Z,99662.97
2022-10-16T07:16:24.335Z,99658.94
2022-10-16T07:18:55.300Z,99658.31
2022-10-16T07:21:23.835Z,99669.25
2022-10-16T07:23:51.639Z,99681.69
2022-10-16T07:26:19.332Z,99671.84
2022-10-16T07:28:47.084Z,99685.00
2022-10-16T07:31:15.754Z,99683.16
2022-10-16T07:33:45.432Z,99684.53
2022-10-16T07:36:16.223Z,99693.97
2022-10-16T07:38:44.521Z,99689.81
2022-10-16T07:41:12.242Z,99698.22
2022-10-16T07:43:40.201Z,99699.25
2022-10-16T07:46:07.877Z,99694.88
2022-10-16T07:48:35.569Z,99704.63
2022-10-16T07:51:03.568Z,99695.53
2022-10-16T07:53:31.564Z,99701.13
2022-10-16T07:55:59.557Z,99702.59
2022-10-16T07:58:27.254Z,99706.31
2022-10-16T08:00:55.270Z,99715.56
2022-10-16T08:03:23.024Z,99706.66
2022-10-16T08:05:51.047Z,99724.78
2022-10-16T08:08:19.040Z,99721.75
2022-10-16T08:10:46.730Z,99731.09
2022-10-16T08:13:16.415Z,99734.13
2022-10-16T08:15:44.276Z,99739.34
2022-10-16T08:18:11.961Z,99747.91
2022-10-16T08:20:39.996Z,99750.41
2022-10-16T08:23:08.094Z,99752.84
2022-10-16T08:25:35.856Z,99761.63
2022-10-16T08:28:03.602Z,99748.41
2022-10-16T08:30:31.697Z,99757.50
2022-10-16T08:33:00.910Z,99756.97
2022-10-16T08:35:28.630Z,99764.19
2022-10-16T08:37:56.315Z,99753.81
2022-10-16T08:42:53.848Z,99759.63
2022-10-16T08:45:22.559Z,99758.13
2022-10-16T08:47:50.405Z,99775.19
2022-10-16T08:50:18.303Z,99781.63
2022-10-16T08:52:46.253Z,99783.31
2022-10-16T08:55:14.139Z,99790.22
2022-10-16T08:57:41.867Z,99792.41
2022-10-16T09:00:09.538Z,99802.91
2022-10-16T09:02:37.462Z,99788.94
2022-10-16T09:05:05.831Z,99797.16
2022-10-16T09:07:36.164Z,99807.94
2022-10-16T09:10:04.324Z,99814.00
2022-10-16T09:12:32.218Z,99810.97
2022-10-16T09:15:00.051Z,99821.59
2022-10-16T09:17:28.274Z,99819.72
2022-10-16T09:19:56.440Z,99818.72
2022-10-16T09:22:24.553Z,99827.97
2022-10-16T09:24:53.895Z,99818.91
2022-10-16T09:27:21.688Z,99824.28
2022-10-16T09:29:49.764Z,99826.63
2022-10-16T09:32:17.765Z,99825.75
2022-10-16T09:34:46.176Z,99829.81
2022-10-16T09:37:14.094Z,99824.25
2022-10-16T09:39:42.005Z,99828.44
2022-10-16T09:42:09.742Z,99830.13
2022-10-16T09:44:37.884Z,99828.75
2022-10-16T09:47:06.094Z,99842.56
2022-10-16T09:49:34.098Z,99837.69
2022-10-16T09:52:02.362Z,99838.47
2022-10-16T09:54:30.332Z,99845.44
2022-10-16T09:56:58.399Z,99840.41
2022-10-16T09:59:28.289Z,99846.28
2022-10-16T10:01:56.461Z,99852.50
2022-10-16T10:04:24.419Z,99839.63
2022-10-16T10:06:52.320Z,99836.81
2022-10-16T10:09:20.452Z,99834.47
2022-10-16T10:11:48.583Z,99840.88
2022-10-16T10:14:16.893Z,99836.72
2022-10-16T10:16:45.053Z,99850.66
2022-10-16T10:19:13.091Z,99852.34
2022-10-16T10:21:41.129Z,99843.38
2022-10-16T10:24:09.594Z,99847.94
2022-10-16T10:26:40.493Z,99863.06
2022-10-16T10:29:10.489Z,99856.25
2022-10-16T10:31:38.339Z,99856.59
2022-10-16T10:34:06.166Z,99852.00
2022-10-16T10:36:34.868Z,99852.31
2022-10-16T10:39:03.883Z,99830.91
2022-10-16T10:41:32.035Z,99839.22
2022-10-16T10:43:59.954Z,99837.91
2022-10-16T10:46:27.853Z,99847.66
2022-10-16T10:48:55.986Z,99850.53
2022-10-16T10:51:23.741Z,99851.22
2022-10-16T10:53:51.621Z,99851.91
2022-10-16T10:56:19.496Z,99856.50
2022-10-16T10:58:48.777Z,99857.66
2022-10-16T11:01:17.234Z,99855.28
2022-10-16T11:03:45.028Z,99862.53
2022-10-16T11:06:12.906Z,99859.22
2022-10-16T11:08:40.779Z,99859.78
2022-10-16T11:11:09.322Z,99859.78
2022-10-16T11:13:37.907Z,99863.31
2022-10-16T11:16:05.866Z,99860.50
2022-10-16T11:18:34.012Z,99867.47
2022-10-16T11:21:02.243Z,99861.88
2022-10-16T11:23:30.390Z,99864.78
2022-10-16T11:25:58.550Z,99861.53
2022-10-16T11:28:29.364Z,99867.44
2022-10-16T11:30:59.456Z,99864.88
2022-10-16T11:33:27.390Z,99858.44
2022-10-16T11:35:55.566Z,99862.63
2022-10-16T11:38:23.850Z,99859.50
2022-10-16T11:40:51.759Z,99863.72
2022-10-16T11:43:19.745Z,99863.03
2022-10-16T11:45:47.531Z,99862.78
2022-10-16T11:48:15.357Z,99866.91
2022-10-16T11:50:43.302Z,99866.13
2022-10-16T11:53:11.663Z,99863.38
2022-10-16T11:55:41.885Z,99867.69
2022-10-16T11:58:12.676Z,99867.38
2022-10-16T12:00:40.692Z,99858.94
2022-10-16T12:03:09.774Z,99864.91
2022-10-16T12:05:37.652Z,99861.59
2022-10-16T12:08:05.532Z,99857.63
2022-10-16T12:13:07.675Z,99865.31
2022-10-16T12:18:23.918Z,99865.16
2022-10-16T12:20:51.797Z,99868.72
2022-10-16T12:23:20.946Z,99871.69
2022-10-16T12:25:49.226Z,99868.59
2022-10-16T12:28:17.781Z,99876.81
2022-10-16T12:30:46.467Z,99878.28
2022-10-16T12:33:16.210Z,99882.03
2022-10-16T12:35:44.040Z,99885.38
2022-10-16T12:38:12.623Z,99883.66
2022-10-16T12:40:40.714Z,99894.69
2022-10-16T12:43:08.607Z,99890.03
2022-10-16T12:45:36.689Z,99892.31
2022-10-16T12:48:05.157Z,99896.09
2022-10-16T12:50:33.804Z,99896.47
2022-10-16T12:53:01.670Z,99893.13
2022-10-16T12:55:29.757Z,99884.25
2022-10-16T12:57:57.810Z,99884.03
2022-10-16T13:00:26.607Z,99887.66
2022-10-16T13:02:55.332Z,99881.03
2022-10-16T13:05:23.639Z,99887.06
2022-10-16T13:07:51.431Z,99896.03
2022-10-16T13:10:19.341Z,99890.19
2022-10-16T13:12:47.427Z,99908.84
2022-10-16T13:15:15.571Z,99902.31
2022-10-16T13:17:43.462Z,99905.22
2022-10-16T13:20:11.252Z,99908.91
2022-10-16T13:22:39.030Z,99913.38
2022-10-16T13:25:10.183Z,99909.50
2022-10-16T13:27:41.567Z,99906.97
2022-10-16T13:30:09.575Z,99894.88
2022-10-16T13:32:37.544Z,99901.69
2022-10-16T13:35:05.404Z,99898.75
2022-10-16T13:37:33.535Z,99905.38
2022-10-16T13:40:01.764Z,99898.53
2022-10-16T13:42:29.614Z,99905.31
2022-10-16T13:44:57.672Z,99897.13
2022-10-16T13:47:25.795Z,99911.06
2022-10-16T13:49:55.281Z,99915.53
2022-10-16T13:52:23.938Z,99915.78
2022-10-16T13:54:51.785Z,99927.13
2022-10-16T13:57:27.740Z,99936.84
2022-10-16T13:59:55.936Z,99927.66
2022-10-16T14:02:24.286Z,99924.19
2022-10-16T14:04:52.410Z,99918.88
2022-10-16T14:07:21.556Z,99919.50
2022-10-16T14:09:49.797Z,99927.75
2022-10-16T14:12:18.090Z,99922.78
2022-10-16T14:14:46.342Z,99911.53
2022-10-16T14:17:14.259Z,99910.09
2022-10-16T14:19:42.254Z,99900.84
2022-10-16T14:22:10.045Z,99900.22
2022-10-16T14:24:38.082Z,99904.13
2022-10-16T14:27:06.436Z,99917.16
2022-10-16T14:29:34.352Z,99927.44
2022-10-16T14:32:02.565Z,99932.00
2022-10-16T14:34:31.616Z,99928.31
2022-10-16T14:36:59.982Z,99927.75
2022-10-16T14:39:28.297Z,99943.06
2022-10-16T14:41:56.133Z,99941.25
2022-10-16T14:44:24.805Z,99954.34
2022-10-16T14:46:52.723Z,99950.84
2022-10-16T14:49:21.161Z,99948.06
2022-10-16T14:51:49.545Z,99943.63
2022-10-16T14:54:17.991Z,99952.09
2022-10-16T14:56:45.669Z,99947.63
2022-10-16T14:59:13.670Z,99952.00
2022-10-16T15:01:41.493Z,99937.53
2022-10-16T15:04:09.757Z,99929.69
2022-10-16T15:06:37.583Z,99917.28
2022-10-16T15:09:05.452Z,99913.53
2022-10-16T15:11:33.285Z,99921.44
2022-10-16T15:14:01.313Z,99934.75
2022-10-16T15:16:29.553Z,99941.44
2022-10-16T15:18:57.396Z,99935.25
2022-10-16T15:21:25.359Z,99931.59
2022-10-16T15:23:53.227Z,99940.97
2022-10-16T15:26:21.252Z,99949.47
2022-10-16T15:28:49.903Z,99949.75
2022-10-16T15:31:17.892Z,99946.59
2022-10-16T15:33:48.961Z,99943.97
2022-10-16T15:36:17.281Z,99948.38
2022-10-16T15:38:46.672Z,99953.84
2022-10-16T15:41:14.879Z,99955.56
2022-10-16T15:43:42.719Z,99952.50
2022-10-16T15:46:10.737Z,99949.84
2022-10-16T15:48:38.602Z,99943.47
2022-10-16T15:51:06.582Z,99937.94
2022-10-16T15:53:35.531Z,99939.66
2022-10-16T15:56:03.294Z,99951.47
2022-10-16T15:58:31.887Z,99956.72
2022-10-16T16:01:01.956Z,99956.59
2022-10-16T16:03:29.892Z,99952.69
2022-10-16T16:05:58.352Z,99948.84
2022-10-16T16:08:26.142Z,99957.28
2022-10-16T16:10:54.679Z,99960.50
2022-10-16T16:13:22.599Z,99950.03
2022-10-16T16:15:50.666Z,99948.72
2022-10-16T16:18:19.017Z,99944.66
2022-10-16T16:20:47.276Z,99949.75
2022-10-16T16:23:15.194Z,99961.84
2022-10-16T16:25:43.018Z,99954.44
2022-10-16T16:28:15.444Z,99959.50
2022-10-16T16:30:43.513Z,99960.19
2022-10-16T16:33:11.431Z,99955.31
2022-10-16T16:35:39.317Z,99949.56
2022-10-16T16:38:07.565Z,99943.00
2022-10-16T16:40:36.086Z,99941.31
2022-10-16T16:43:05.932Z,99943.50
2022-10-16T16:45:33.698Z,99945.53
2022-10-16T16:48:01.460Z,99957.50
2022-10-16T16:50:29.495Z,99953.44
2022-10-16T16:52:57.417Z,99958.97
2022-10-16T16:55:25.912Z,99956.78
2022-10-16T16:57:53.870Z,99964.22
2022-10-16T17:00:21.839Z,99963.53
2022-10-16T17:02:50.152Z,99967.25
2022-10-16T17:05:18.458Z,99964.88
2022-10-16T17:07:46.532Z,99978.53
2022-10-16T17:10:14.415Z,99980.53
2022-10-16T17:12:42.255Z,99978.00
2022-10-16T17:15:10.082Z,99980.72
2022-10-16T17:17:38.215Z,99972.78
2022-10-16T17:20:06.547Z,99975.63
2022-10-16T17:22:34.341Z,99971.25
2022-10-16T17:25:04.598Z,99980.34
2022-10-16T17:27:32.567Z,99989.44
2022-10-16T17:30:00.809Z,99990.47
2022-10-16T17:32:29.300Z,99990.75
2022-10-16T17:34:57.697Z,100004.41
2022-10-16T17:37:25.581Z,100009.09
2022-10-16T17:39:53.499Z,100000.50
2022-10-16T17:42:21.902Z,100001.72
2022-10-16T17:44:49.900Z,100007.41
2022-10-16T17:47:17.668Z,100009.56
2022-10-16T17:49:45.740Z,100002.63
2022-10-16T17:52:14.456Z,100005.00
2022-10-16T17:54:42.304Z,100001.78
2022-10-16T17:57:10.620Z,99998.38
2022-10-16T17:59:38.488Z,99997.72
2022-10-16T18:02:06.518Z,100002.41
2022-10-16T18:04:34.526Z,100012.19
2022-10-16T18:07:04.565Z,100016.03
2022-10-16T18:09:33.030Z,100014.19
2022-10-16T18:12:01.483Z,100016.22
2022-10-16T18:14:29.717Z,100012.66
2022-10-16T18:16:57.591Z,100015.69
2022-10-16T18:19:25.915Z,100029.47
2022-10-16T18:21:56.040Z,100022.53
2022-10-16T18:24:25.028Z,100019.84
2022-10-16T18:26:56.619Z,100023.69
2022-10-16T18:29:24.510Z,100016.50
2022-10-16T18:31:52.464Z,100023.03
2022-10-16T18:34:20.934Z,100022.34
2022-10-16T18:36:51.378Z,100012.75
2022-10-16T18:39:23.993Z,100017.31
2022-10-16T18:41:55.537Z,100019.28
2022-10-16T18:44:24.284Z,100023.00
2022-10-16T18:46:57.541Z,100012.38
2022-10-16T18:49:26.556Z,100013.38
2022-10-16T18:51:56.970Z,100015.41
2022-10-16T18:54:25.291Z,100010.88
2022-10-16T18:56:53.277Z,100001.94
2022-10-16T18:59:21.117Z,100007.34
2022-10-16T19:01:49.292Z,100008.50
2022-10-16T19:04:17.044Z,100004.28
2022-10-16T19:06:45.247Z,100004.44
2022-10-16T19:09:13.517Z,100009.97
2022-10-16T19:11:41.980Z,100012.00
2022-10-16T19:14:10.055Z,100006.91
2022-10-16T19:16:38.417Z,100004.41
2022-10-16T19:19:06.743Z,100006.09
2022-10-16T19:21:34.604Z,100015.00
2022-10-16T19:24:02.523Z,100013.97
2022-10-16T19:26:30.489Z,100004.06
2022-10-16T19:28:59.031Z,100010.13
2022-10-16T19:31:29.068Z,100017.38
2022-10-16T19:33:56.944Z,100021.75
2022-10-16T19:36:24.845Z,100019.88
2022-10-16T19:38:52.623Z,100044.97
2022-10-16T19:41:20.509Z,100051.19
2022-10-16T19:43:48.734Z,100051.19
2022-10-16T19:46:16.690Z,100049.47
2022-10-16T19:48:44.599Z,100052.16
2022-10-16T19:51:12.535Z,100061.44
2022-10-16T19:53:40.978Z,100066.09
2022-10-16T19:56:09.472Z,100078.00
2022-10-16T19:58:37.331Z,100084.72
2022-10-16T20:01:05.338Z,100085.19
2022-10-16T20:03:33.150Z,100077.59
2022-10-16T20:06:06.489Z,100074.38
2022-10-16T20:08:35.195Z,100065.78
2022-10-16T20:11:03.123Z,100065.94
2022-10-16T20:13:31.002Z,100078.69
2022-10-16T20:15:58.924Z,100086.09
2022-10-16T20:18:26.784Z,100092.63
2022-10-16T20:20:55.984Z,100092.75
2022-10-16T20:23:24.281Z,100077.63
2022-10-16T20:25:52.947Z,100076.94
2022-10-16T20:28:20.788Z,100073.72
2022-10-16T20:30:48.581Z,100074.31
2022-10-16T20:33:16.940Z,100073.25
2022-10-16T20:35:45.290Z,100086.47
2022-10-16T20:38:13.150Z,100085.38
2022-10-16T20:40:41.026Z,100080.75
2022-10-16T20:43:08.966Z,100076.00
2022-10-16T20:45:37.704Z,100068.88
2022-10-16T20:48:05.496Z,100067.63
2022-10-16T20:50:33.297Z,100076.00
2022-10-16T20:53:01.137Z,100074.63
2022-10-16T20:55:28.997Z,100072.53
2022-10-16T20:57:58.738Z,100068.63
2022-10-16T21:00:26.660Z,100072.75
2022-10-16T21:02:54.356Z,100070.66
2022-10-16T21:05:22.147Z,100080.72
2022-10-16T21:07:49.875Z,100071.25
2022-10-16T21:10:19.599Z,100071.56
2022-10-16T21:12:47.423Z,100077.94
2022-10-16T21:15:15.780Z,100075.69
2022-10-16T21:17:43.779Z,100075.97
2022-10-16T21:20:11.647Z,100076.28
2022-10-16T21:22:40.248Z,100083.78
2022-10-16T21:25:08.091Z,100076.75
2022-10-16T21:27:35.921Z,100075.03
2022-10-16T21:30:03.901Z,100076.97
2022-10-16T21:32:31.896Z,100069.94
2022-10-16T21:34:59.884Z,100067.25
2022-10-16T21:37:27.608Z,100065.44
2022-10-16T21:39:55.420Z,100072.75
2022-10-16T21:42:23.339Z,100064.88
2022-10-16T21:44:51.087Z,100073.06
2022-10-16T21:47:19.834Z,100062.63
2022-10-16T21:49:47.558Z,100074.50
2022-10-16T21:52:15.189Z,100060.69
2022-10-16T21:54:42.911Z,100060.69
2022-10-16T21:57:10.735Z,100063.69
2022-10-16T21:59:39.090Z,100053.09
2022-10-16T22:02:07.256Z,100060.44
2022-10-16T22:04:34.941Z,100062.44
2022-10-16T22:07:02.655Z,100061.72
2022-10-16T22:09:30.356Z,100058.19
2022-10-16T22:11:58.552Z,100054.81
2022-10-16T22:14:26.263Z,100054.09
2022-10-16T22:16:53.944Z,100048.06
2022-10-16T22:19:21.660Z,100050.31
2022-10-16T22:21:49.295Z,100047.81
2022-10-16T22:24:19.232Z,100050.91
2022-10-16T22:26:47.128Z,100049.38
2022-10-16T22:29:14.803Z,100044.16
2022-10-16T22:31:42.504Z,100047.97
2022-10-16T22:34:10.257Z,100057.16
2022-10-16T22:36:38.544Z,100049.41
2022-10-16T22:39:06.305Z,100044.19
2022-10-16T22:41:33.987Z,100046.16
2022-10-16T22:44:01.580Z,100046.16
2022-10-16T22:46:29.230Z,100040.94
2022-10-16T22:48:57.453Z,100039.94
2022-10-16T22:51:25.139Z,100043.34
2022-10-16T22:53:52.896Z,100045.03
2022-10-16T22:56:20.545Z,100044.19
2022-10-16T22:58:48.223Z,100047.00
2022-10-16T23:01:16.410Z,100045.47
2022-10-16T23:03:44.080Z,100044.75
2022-10-16T23:06:12.083Z,100045.91
2022-10-16T23:08:39.699Z,100043.38
2022-10-16T23:11:07.368Z,100045.50
2022-10-16T23:13:35.346Z,100040.13
2022-10-16T23:16:02.963Z,100037.59
2022-10-16T23:18:30.634Z,100041.25
2022-10-16T23:20:58.250Z,100035.22
2022-10-16T23:23:25.879Z,100038.03
2022-10-16T23:25:53.773Z,100038.03
2022-10-16T23:28:21.884Z,100047.06
2022-10-16T23:30:49.540Z,100051.44
2022-10-16T23:33:17.243Z,100049.75
2022-10-16T23:35:44.831Z,100049.75
2022-10-16T23:38:12.726Z,100045.38
2022-10-16T23:40:40.423Z,100044.50
2022-10-16T23:43:07.986Z,100044.69
2022-10-16T23:45:35.550Z,100049.19
2022-10-16T23:48:03.180Z,100050.03
2022-10-16T23:50:31.956Z,100050.03
2022-10-16T23:52:59.579Z,100054.41
2022-10-16T23:55:27.228Z,100048.75
2022-10-16T23:57:54.878Z,100054.81
